sensor_id;sensor_type;location;lat;lon;timestamp;P1;durP1;ratioP1;P2;durP2;ratioP2
78916;SDS011;68315;48.608;11.436;2024-01-30T00:00:19;16.50;;;11.02;;
78916;SDS011;68315;48.608;11.436;2024-01-30T00:02:44;15.30;;;10.73;;
78916;SDS011;68315;48.608;11.436;2024-01-30T00:05:10;14.45;;;9.35;;
78916;SDS011;68315;48.608;11.436;2024-01-30T00:07:36;13.55;;;9.55;;
78916;SDS011;68315;48.608;11.436;2024-01-30T00:10:01;14.30;;;9.32;;
78916;SDS011;68315;48.608;11.436;2024-01-30T00:12:26;13.70;;;9.90;;
78916;SDS011;68315;48.608;11.436;2024-01-30T00:14:51;16.48;;;10.48;;
78916;SDS011;68315;48.608;11.436;2024-01-30T00:17:16;14.40;;;9.55;;
78916;SDS011;68315;48.608;11.436;2024-01-30T00:19:42;14.52;;;8.93;;
78916;SDS011;68315;48.608;11.436;2024-01-30T00:22:07;11.60;;;8.85;;
78916;SDS011;68315;48.608;11.436;2024-01-30T00:24:32;14.65;;;9.30;;
78916;SDS011;68315;48.608;11.436;2024-01-30T00:26:58;11.68;;;8.27;;
78916;SDS011;68315;48.608;11.436;2024-01-30T00:29:23;13.38;;;9.07;;
78916;SDS011;68315;48.608;11.436;2024-01-30T00:31:50;13.07;;;8.85;;
78916;SDS011;68315;48.608;11.436;2024-01-30T00:34:15;12.10;;;9.18;;
78916;SDS011;68315;48.608;11.436;2024-01-30T00:36:41;12.82;;;9.38;;
78916;SDS011;68315;48.608;11.436;2024-01-30T00:39:06;10.68;;;8.55;;
78916;SDS011;68315;48.608;11.436;2024-01-30T00:41:34;13.10;;;9.25;;
78916;SDS011;68315;48.608;11.436;2024-01-30T00:43:59;13.10;;;9.05;;
78916;SDS011;68315;48.608;11.436;2024-01-30T00:46:24;14.35;;;8.95;;
78916;SDS011;68315;48.608;11.436;2024-01-30T00:48:50;12.40;;;9.40;;
78916;SDS011;68315;48.608;11.436;2024-01-30T00:51:15;15.60;;;10.07;;
78916;SDS011;68315;48.608;11.436;2024-01-30T00:53:40;13.68;;;9.40;;
78916;SDS011;68315;48.608;11.436;2024-01-30T00:56:06;14.82;;;10.38;;
78916;SDS011;68315;48.608;11.436;2024-01-30T00:58:32;15.32;;;10.52;;
78916;SDS011;68315;48.608;11.436;2024-01-30T01:00:57;13.00;;;9.40;;
78916;SDS011;68315;48.608;11.436;2024-01-30T01:03:22;12.82;;;9.50;;
78916;SDS011;68315;48.608;11.436;2024-01-30T01:05:47;13.95;;;9.85;;
78916;SDS011;68315;48.608;11.436;2024-01-30T01:08:13;13.30;;;9.65;;
78916;SDS011;68315;48.608;11.436;2024-01-30T01:10:40;15.40;;;9.95;;
78916;SDS011;68315;48.608;11.436;2024-01-30T01:13:05;12.23;;;9.68;;
78916;SDS011;68315;48.608;11.436;2024-01-30T01:15:30;14.98;;;9.63;;
78916;SDS011;68315;48.608;11.436;2024-01-30T01:17:55;12.95;;;8.63;;
78916;SDS011;68315;48.608;11.436;2024-01-30T01:20:20;11.07;;;8.63;;
78916;SDS011;68315;48.608;11.436;2024-01-30T01:22:46;11.65;;;9.07;;
78916;SDS011;68315;48.608;11.436;2024-01-30T01:25:11;14.73;;;9.32;;
78916;SDS011;68315;48.608;11.436;2024-01-30T01:27:36;13.45;;;9.73;;
78916;SDS011;68315;48.608;11.436;2024-01-30T01:30:06;12.57;;;8.63;;
78916;SDS011;68315;48.608;11.436;2024-01-30T01:32:34;10.68;;;8.25;;
78916;SDS011;68315;48.608;11.436;2024-01-30T01:34:59;10.88;;;8.30;;
78916;SDS011;68315;48.608;11.436;2024-01-30T01:37:24;12.43;;;7.97;;
78916;SDS011;68315;48.608;11.436;2024-01-30T01:39:51;16.73;;;11.15;;
78916;SDS011;68315;48.608;11.436;2024-01-30T01:42:17;16.05;;;11.35;;
78916;SDS011;68315;48.608;11.436;2024-01-30T01:44:42;17.17;;;12.10;;
78916;SDS011;68315;48.608;11.436;2024-01-30T01:47:07;19.13;;;11.27;;
78916;SDS011;68315;48.608;11.436;2024-01-30T01:49:32;14.57;;;10.02;;
78916;SDS011;68315;48.608;11.436;2024-01-30T01:51:58;11.45;;;9.05;;
78916;SDS011;68315;48.608;11.436;2024-01-30T01:54:23;15.40;;;9.50;;
78916;SDS011;68315;48.608;11.436;2024-01-30T01:56:51;12.73;;;9.13;;
78916;SDS011;68315;48.608;11.436;2024-01-30T01:59:18;12.05;;;8.65;;
78916;SDS011;68315;48.608;11.436;2024-01-30T02:01:44;14.73;;;8.98;;
78916;SDS011;68315;48.608;11.436;2024-01-30T02:04:13;12.77;;;9.25;;
78916;SDS011;68315;48.608;11.436;2024-01-30T02:06:39;12.00;;;8.90;;
78916;SDS011;68315;48.608;11.436;2024-01-30T02:09:04;15.80;;;9.65;;
78916;SDS011;68315;48.608;11.436;2024-01-30T02:11:29;19.52;;;10.68;;
78916;SDS011;68315;48.608;11.436;2024-01-30T02:13:55;15.25;;;10.23;;
78916;SDS011;68315;48.608;11.436;2024-01-30T02:16:20;13.75;;;10.73;;
78916;SDS011;68315;48.608;11.436;2024-01-30T02:18:45;12.57;;;9.80;;
78916;SDS011;68315;48.608;11.436;2024-01-30T02:21:14;11.50;;;8.77;;
78916;SDS011;68315;48.608;11.436;2024-01-30T02:23:40;13.13;;;8.90;;
78916;SDS011;68315;48.608;11.436;2024-01-30T02:26:06;11.57;;;8.45;;
78916;SDS011;68315;48.608;11.436;2024-01-30T02:28:31;13.90;;;9.23;;
78916;SDS011;68315;48.608;11.436;2024-01-30T02:30:56;13.90;;;9.00;;
78916;SDS011;68315;48.608;11.436;2024-01-30T02:33:21;11.68;;;7.93;;
78916;SDS011;68315;48.608;11.436;2024-01-30T02:35:47;13.50;;;8.32;;
78916;SDS011;68315;48.608;11.436;2024-01-30T02:38:12;10.75;;;8.23;;
78916;SDS011;68315;48.608;11.436;2024-01-30T02:40:38;12.02;;;8.25;;
78916;SDS011;68315;48.608;11.436;2024-01-30T02:43:03;14.88;;;9.27;;
78916;SDS011;68315;48.608;11.436;2024-01-30T02:45:29;11.80;;;8.98;;
78916;SDS011;68315;48.608;11.436;2024-01-30T02:47:54;15.90;;;9.45;;
78916;SDS011;68315;48.608;11.436;2024-01-30T02:50:19;13.93;;;9.50;;
78916;SDS011;68315;48.608;11.436;2024-01-30T02:52:44;14.80;;;9.70;;
78916;SDS011;68315;48.608;11.436;2024-01-30T02:55:10;11.15;;;8.60;;
78916;SDS011;68315;48.608;11.436;2024-01-30T02:57:35;11.73;;;8.27;;
78916;SDS011;68315;48.608;11.436;2024-01-30T03:00:01;17.02;;;10.85;;
78916;SDS011;68315;48.608;11.436;2024-01-30T03:02:26;18.70;;;10.57;;
78916;SDS011;68315;48.608;11.436;2024-01-30T03:04:52;17.02;;;10.70;;
78916;SDS011;68315;48.608;11.436;2024-01-30T03:07:17;18.02;;;11.23;;
78916;SDS011;68315;48.608;11.436;2024-01-30T03:09:42;14.82;;;9.60;;
78916;SDS011;68315;48.608;11.436;2024-01-30T03:12:08;13.52;;;9.35;;
78916;SDS011;68315;48.608;11.436;2024-01-30T03:14:34;13.68;;;9.20;;
78916;SDS011;68315;48.608;11.436;2024-01-30T03:16:59;13.75;;;9.52;;
78916;SDS011;68315;48.608;11.436;2024-01-30T03:19:24;16.63;;;10.20;;
78916;SDS011;68315;48.608;11.436;2024-01-30T03:21:50;13.20;;;9.25;;
78916;SDS011;68315;48.608;11.436;2024-01-30T03:24:16;15.02;;;10.30;;
78916;SDS011;68315;48.608;11.436;2024-01-30T03:26:41;15.30;;;11.15;;
78916;SDS011;68315;48.608;11.436;2024-01-30T03:29:07;13.52;;;10.50;;
78916;SDS011;68315;48.608;11.436;2024-01-30T03:31:32;10.93;;;9.25;;
78916;SDS011;68315;48.608;11.436;2024-01-30T03:33:57;14.60;;;9.30;;
78916;SDS011;68315;48.608;11.436;2024-01-30T03:36:23;13.93;;;9.48;;
78916;SDS011;68315;48.608;11.436;2024-01-30T03:38:48;13.45;;;9.77;;
78916;SDS011;68315;48.608;11.436;2024-01-30T03:41:13;15.00;;;10.00;;
78916;SDS011;68315;48.608;11.436;2024-01-30T03:43:39;15.52;;;10.10;;
78916;SDS011;68315;48.608;11.436;2024-01-30T03:46:04;14.45;;;9.80;;
78916;SDS011;68315;48.608;11.436;2024-01-30T03:48:32;14.23;;;9.82;;
78916;SDS011;68315;48.608;11.436;2024-01-30T03:50:57;12.40;;;8.93;;
78916;SDS011;68315;48.608;11.436;2024-01-30T03:53:23;13.82;;;9.15;;
78916;SDS011;68315;48.608;11.436;2024-01-30T03:55:48;13.80;;;9.95;;
78916;SDS011;68315;48.608;11.436;2024-01-30T03:58:13;14.52;;;9.05;;
78916;SDS011;68315;48.608;11.436;2024-01-30T04:00:38;16.02;;;9.55;;
78916;SDS011;68315;48.608;11.436;2024-01-30T04:03:04;12.75;;;8.93;;
78916;SDS011;68315;48.608;11.436;2024-01-30T04:05:29;12.38;;;8.75;;
78916;SDS011;68315;48.608;11.436;2024-01-30T04:07:55;13.13;;;9.07;;
78916;SDS011;68315;48.608;11.436;2024-01-30T04:10:20;13.73;;;9.25;;
78916;SDS011;68315;48.608;11.436;2024-01-30T04:12:45;11.45;;;8.95;;
78916;SDS011;68315;48.608;11.436;2024-01-30T04:15:11;12.10;;;8.35;;
78916;SDS011;68315;48.608;11.436;2024-01-30T04:17:36;12.93;;;8.73;;
78916;SDS011;68315;48.608;11.436;2024-01-30T04:20:01;12.57;;;8.88;;
78916;SDS011;68315;48.608;11.436;2024-01-30T04:22:27;12.82;;;8.30;;
78916;SDS011;68315;48.608;11.436;2024-01-30T04:24:52;13.90;;;9.60;;
78916;SDS011;68315;48.608;11.436;2024-01-30T04:27:17;11.00;;;8.32;;
78916;SDS011;68315;48.608;11.436;2024-01-30T04:29:43;12.13;;;8.38;;
78916;SDS011;68315;48.608;11.436;2024-01-30T04:32:08;11.52;;;8.90;;
78916;SDS011;68315;48.608;11.436;2024-01-30T04:34:34;12.38;;;8.90;;
78916;SDS011;68315;48.608;11.436;2024-01-30T04:37:01;14.95;;;9.50;;
78916;SDS011;68315;48.608;11.436;2024-01-30T04:39:26;12.07;;;8.95;;
78916;SDS011;68315;48.608;11.436;2024-01-30T04:41:51;17.38;;;9.95;;
78916;SDS011;68315;48.608;11.436;2024-01-30T04:44:17;12.85;;;9.38;;
78916;SDS011;68315;48.608;11.436;2024-01-30T04:46:42;12.88;;;9.02;;
78916;SDS011;68315;48.608;11.436;2024-01-30T04:49:07;14.77;;;8.95;;
78916;SDS011;68315;48.608;11.436;2024-01-30T04:51:33;12.70;;;9.23;;
78916;SDS011;68315;48.608;11.436;2024-01-30T04:53:58;13.40;;;8.40;;
78916;SDS011;68315;48.608;11.436;2024-01-30T04:56:24;14.05;;;8.90;;
78916;SDS011;68315;48.608;11.436;2024-01-30T04:58:49;13.27;;;9.00;;
78916;SDS011;68315;48.608;11.436;2024-01-30T05:01:15;16.17;;;10.00;;
78916;SDS011;68315;48.608;11.436;2024-01-30T05:03:41;14.27;;;9.55;;
78916;SDS011;68315;48.608;11.436;2024-01-30T05:06:06;14.82;;;9.75;;
78916;SDS011;68315;48.608;11.436;2024-01-30T05:08:31;14.52;;;9.20;;
78916;SDS011;68315;48.608;11.436;2024-01-30T05:10:59;14.73;;;10.13;;
78916;SDS011;68315;48.608;11.436;2024-01-30T05:13:25;16.77;;;9.48;;
78916;SDS011;68315;48.608;11.436;2024-01-30T05:15:50;13.52;;;9.32;;
78916;SDS011;68315;48.608;11.436;2024-01-30T05:18:15;12.48;;;8.57;;
78916;SDS011;68315;48.608;11.436;2024-01-30T05:20:41;12.65;;;8.88;;
78916;SDS011;68315;48.608;11.436;2024-01-30T05:23:06;13.25;;;9.20;;
78916;SDS011;68315;48.608;11.436;2024-01-30T05:25:31;13.30;;;9.13;;
78916;SDS011;68315;48.608;11.436;2024-01-30T05:27:56;11.93;;;9.05;;
78916;SDS011;68315;48.608;11.436;2024-01-30T05:30:22;12.90;;;9.25;;
78916;SDS011;68315;48.608;11.436;2024-01-30T05:32:47;12.68;;;9.20;;
78916;SDS011;68315;48.608;11.436;2024-01-30T05:35:12;12.40;;;8.85;;
78916;SDS011;68315;48.608;11.436;2024-01-30T05:37:37;12.55;;;8.35;;
78916;SDS011;68315;48.608;11.436;2024-01-30T05:40:03;12.20;;;8.70;;
78916;SDS011;68315;48.608;11.436;2024-01-30T05:42:29;13.27;;;9.20;;
78916;SDS011;68315;48.608;11.436;2024-01-30T05:44:54;13.85;;;9.15;;
78916;SDS011;68315;48.608;11.436;2024-01-30T05:47:20;12.85;;;9.60;;
78916;SDS011;68315;48.608;11.436;2024-01-30T05:49:45;13.75;;;10.15;;
78916;SDS011;68315;48.608;11.436;2024-01-30T05:52:10;13.93;;;10.25;;
78916;SDS011;68315;48.608;11.436;2024-01-30T05:54:36;12.88;;;10.07;;
78916;SDS011;68315;48.608;11.436;2024-01-30T05:57:01;13.48;;;9.70;;
78916;SDS011;68315;48.608;11.436;2024-01-30T05:59:26;15.35;;;9.65;;
78916;SDS011;68315;48.608;11.436;2024-01-30T06:01:52;14.02;;;9.27;;
78916;SDS011;68315;48.608;11.436;2024-01-30T06:04:17;13.63;;;9.40;;
78916;SDS011;68315;48.608;11.436;2024-01-30T06:06:42;15.13;;;10.25;;
78916;SDS011;68315;48.608;11.436;2024-01-30T06:09:07;13.20;;;9.50;;
78916;SDS011;68315;48.608;11.436;2024-01-30T06:11:34;14.63;;;10.40;;
78916;SDS011;68315;48.608;11.436;2024-01-30T06:13:59;15.63;;;10.40;;
78916;SDS011;68315;48.608;11.436;2024-01-30T06:16:24;14.98;;;10.82;;
78916;SDS011;68315;48.608;11.436;2024-01-30T06:18:54;17.52;;;10.63;;
78916;SDS011;68315;48.608;11.436;2024-01-30T06:21:19;15.75;;;10.00;;
78916;SDS011;68315;48.608;11.436;2024-01-30T06:23:44;15.88;;;10.52;;
78916;SDS011;68315;48.608;11.436;2024-01-30T06:26:10;14.00;;;10.27;;
78916;SDS011;68315;48.608;11.436;2024-01-30T06:28:35;17.90;;;10.68;;
78916;SDS011;68315;48.608;11.436;2024-01-30T06:31:01;14.13;;;9.75;;
78916;SDS011;68315;48.608;11.436;2024-01-30T06:33:26;13.20;;;9.48;;
78916;SDS011;68315;48.608;11.436;2024-01-30T06:35:51;15.38;;;9.57;;
78916;SDS011;68315;48.608;11.436;2024-01-30T06:38:16;14.05;;;9.68;;
78916;SDS011;68315;48.608;11.436;2024-01-30T06:40:42;11.93;;;9.32;;
78916;SDS011;68315;48.608;11.436;2024-01-30T06:43:07;14.27;;;9.85;;
78916;SDS011;68315;48.608;11.436;2024-01-30T06:45:33;11.00;;;8.55;;
78916;SDS011;68315;48.608;11.436;2024-01-30T06:47:59;10.70;;;8.68;;
78916;SDS011;68315;48.608;11.436;2024-01-30T06:50:25;15.75;;;10.13;;
78916;SDS011;68315;48.608;11.436;2024-01-30T06:52:51;12.13;;;10.00;;
78916;SDS011;68315;48.608;11.436;2024-01-30T06:55:16;17.38;;;10.65;;
78916;SDS011;68315;48.608;11.436;2024-01-30T06:57:41;16.92;;;10.27;;
78916;SDS011;68315;48.608;11.436;2024-01-30T07:00:06;18.27;;;10.73;;
78916;SDS011;68315;48.608;11.436;2024-01-30T07:02:32;16.00;;;10.05;;
78916;SDS011;68315;48.608;11.436;2024-01-30T07:04:58;12.88;;;10.00;;
78916;SDS011;68315;48.608;11.436;2024-01-30T07:07:23;14.40;;;10.32;;
78916;SDS011;68315;48.608;11.436;2024-01-30T07:09:48;15.10;;;10.23;;
78916;SDS011;68315;48.608;11.436;2024-01-30T07:12:17;12.88;;;9.63;;
78916;SDS011;68315;48.608;11.436;2024-01-30T07:14:42;13.57;;;9.93;;
78916;SDS011;68315;48.608;11.436;2024-01-30T07:17:07;13.70;;;9.85;;
78916;SDS011;68315;48.608;11.436;2024-01-30T07:19:33;14.35;;;9.60;;
78916;SDS011;68315;48.608;11.436;2024-01-30T07:21:59;15.98;;;10.45;;
78916;SDS011;68315;48.608;11.436;2024-01-30T07:24:24;13.82;;;10.88;;
78916;SDS011;68315;48.608;11.436;2024-01-30T07:26:49;14.82;;;10.35;;
78916;SDS011;68315;48.608;11.436;2024-01-30T07:29:15;18.15;;;11.70;;
78916;SDS011;68315;48.608;11.436;2024-01-30T07:31:40;15.10;;;11.45;;
78916;SDS011;68315;48.608;11.436;2024-01-30T07:34:05;18.30;;;12.82;;
78916;SDS011;68315;48.608;11.436;2024-01-30T07:36:30;20.35;;;13.20;;
78916;SDS011;68315;48.608;11.436;2024-01-30T07:38:55;17.90;;;12.05;;
78916;SDS011;68315;48.608;11.436;2024-01-30T07:41:21;20.25;;;14.15;;
78916;SDS011;68315;48.608;11.436;2024-01-30T07:43:46;17.55;;;12.15;;
78916;SDS011;68315;48.608;11.436;2024-01-30T07:46:11;18.88;;;13.63;;
78916;SDS011;68315;48.608;11.436;2024-01-30T07:48:36;22.85;;;14.60;;
78916;SDS011;68315;48.608;11.436;2024-01-30T07:51:02;20.00;;;13.85;;
78916;SDS011;68315;48.608;11.436;2024-01-30T07:53:28;21.92;;;14.32;;
78916;SDS011;68315;48.608;11.436;2024-01-30T07:55:54;22.17;;;14.88;;
78916;SDS011;68315;48.608;11.436;2024-01-30T07:58:19;18.98;;;13.55;;
78916;SDS011;68315;48.608;11.436;2024-01-30T08:00:44;21.30;;;13.93;;
78916;SDS011;68315;48.608;11.436;2024-01-30T08:03:10;21.27;;;13.98;;
78916;SDS011;68315;48.608;11.436;2024-01-30T08:05:35;19.48;;;13.77;;
78916;SDS011;68315;48.608;11.436;2024-01-30T08:08:00;21.73;;;14.88;;
78916;SDS011;68315;48.608;11.436;2024-01-30T08:10:25;21.75;;;14.90;;
78916;SDS011;68315;48.608;11.436;2024-01-30T08:12:51;22.95;;;15.57;;
78916;SDS011;68315;48.608;11.436;2024-01-30T08:15:16;22.27;;;15.52;;
78916;SDS011;68315;48.608;11.436;2024-01-30T08:17:41;22.92;;;16.08;;
78916;SDS011;68315;48.608;11.436;2024-01-30T08:20:06;21.15;;;14.88;;
78916;SDS011;68315;48.608;11.436;2024-01-30T08:22:33;21.77;;;14.98;;
78916;SDS011;68315;48.608;11.436;2024-01-30T08:24:58;23.10;;;15.50;;
78916;SDS011;68315;48.608;11.436;2024-01-30T08:27:23;20.02;;;14.20;;
78916;SDS011;68315;48.608;11.436;2024-01-30T08:29:49;22.38;;;14.90;;
78916;SDS011;68315;48.608;11.436;2024-01-30T08:32:15;21.42;;;14.68;;
78916;SDS011;68315;48.608;11.436;2024-01-30T08:34:40;21.73;;;15.27;;
78916;SDS011;68315;48.608;11.436;2024-01-30T08:37:05;23.00;;;15.70;;
78916;SDS011;68315;48.608;11.436;2024-01-30T08:39:30;24.23;;;16.67;;
78916;SDS011;68315;48.608;11.436;2024-01-30T08:41:56;24.58;;;16.30;;
78916;SDS011;68315;48.608;11.436;2024-01-30T08:44:21;22.38;;;14.82;;
78916;SDS011;68315;48.608;11.436;2024-01-30T08:46:46;24.10;;;16.45;;
78916;SDS011;68315;48.608;11.436;2024-01-30T08:49:12;24.92;;;17.13;;
78916;SDS011;68315;48.608;11.436;2024-01-30T08:51:38;22.83;;;15.52;;
78916;SDS011;68315;48.608;11.436;2024-01-30T08:54:04;22.42;;;14.90;;
78916;SDS011;68315;48.608;11.436;2024-01-30T08:56:29;26.25;;;17.15;;
78916;SDS011;68315;48.608;11.436;2024-01-30T08:58:54;23.77;;;15.30;;
78916;SDS011;68315;48.608;11.436;2024-01-30T09:01:19;21.00;;;14.68;;
78916;SDS011;68315;48.608;11.436;2024-01-30T09:03:45;21.77;;;15.63;;
78916;SDS011;68315;48.608;11.436;2024-01-30T09:06:11;22.17;;;15.52;;
78916;SDS011;68315;48.608;11.436;2024-01-30T09:08:37;27.92;;;19.10;;
78916;SDS011;68315;48.608;11.436;2024-01-30T09:11:09;24.92;;;17.35;;
78916;SDS011;68315;48.608;11.436;2024-01-30T09:13:38;22.67;;;16.27;;
78916;SDS011;68315;48.608;11.436;2024-01-30T09:16:03;21.25;;;15.45;;
78916;SDS011;68315;48.608;11.436;2024-01-30T09:18:29;22.25;;;16.23;;
78916;SDS011;68315;48.608;11.436;2024-01-30T09:20:54;24.42;;;17.52;;
78916;SDS011;68315;48.608;11.436;2024-01-30T09:23:19;26.88;;;18.67;;
78916;SDS011;68315;48.608;11.436;2024-01-30T09:25:45;24.38;;;17.40;;
78916;SDS011;68315;48.608;11.436;2024-01-30T09:28:10;25.70;;;17.00;;
78916;SDS011;68315;48.608;11.436;2024-01-30T09:30:35;24.30;;;17.65;;
78916;SDS011;68315;48.608;11.436;2024-01-30T09:33:01;26.25;;;18.90;;
78916;SDS011;68315;48.608;11.436;2024-01-30T09:35:26;27.23;;;18.35;;
78916;SDS011;68315;48.608;11.436;2024-01-30T09:37:51;24.83;;;17.30;;
78916;SDS011;68315;48.608;11.436;2024-01-30T09:40:17;26.95;;;17.98;;
78916;SDS011;68315;48.608;11.436;2024-01-30T09:42:44;24.73;;;17.65;;
78916;SDS011;68315;48.608;11.436;2024-01-30T09:45:12;20.77;;;16.05;;
78916;SDS011;68315;48.608;11.436;2024-01-30T09:47:42;21.27;;;16.35;;
78916;SDS011;68315;48.608;11.436;2024-01-30T09:50:09;24.20;;;15.68;;
78916;SDS011;68315;48.608;11.436;2024-01-30T09:52:35;20.85;;;15.30;;
78916;SDS011;68315;48.608;11.436;2024-01-30T09:55:01;20.25;;;15.95;;
78916;SDS011;68315;48.608;11.436;2024-01-30T09:57:26;20.35;;;15.73;;
78916;SDS011;68315;48.608;11.436;2024-01-30T09:59:51;20.00;;;15.70;;
78916;SDS011;68315;48.608;11.436;2024-01-30T10:02:19;21.00;;;15.35;;
78916;SDS011;68315;48.608;11.436;2024-01-30T10:04:44;22.67;;;15.45;;
78916;SDS011;68315;48.608;11.436;2024-01-30T10:07:09;19.40;;;14.07;;
78916;SDS011;68315;48.608;11.436;2024-01-30T10:09:36;19.38;;;15.38;;
78916;SDS011;68315;48.608;11.436;2024-01-30T10:12:02;21.23;;;15.23;;
78916;SDS011;68315;48.608;11.436;2024-01-30T10:14:28;19.42;;;14.68;;
78916;SDS011;68315;48.608;11.436;2024-01-30T10:16:55;17.17;;;14.02;;
78916;SDS011;68315;48.608;11.436;2024-01-30T10:19:20;17.15;;;13.57;;
78916;SDS011;68315;48.608;11.436;2024-01-30T10:21:46;18.98;;;15.07;;
78916;SDS011;68315;48.608;11.436;2024-01-30T10:24:11;20.13;;;14.32;;
78916;SDS011;68315;48.608;11.436;2024-01-30T10:26:38;19.10;;;13.88;;
78916;SDS011;68315;48.608;11.436;2024-01-30T10:29:04;19.02;;;14.57;;
78916;SDS011;68315;48.608;11.436;2024-01-30T10:31:29;17.50;;;13.73;;
78916;SDS011;68315;48.608;11.436;2024-01-30T10:33:54;19.08;;;13.40;;
78916;SDS011;68315;48.608;11.436;2024-01-30T10:36:20;14.77;;;11.77;;
78916;SDS011;68315;48.608;11.436;2024-01-30T10:38:53;15.57;;;12.40;;
78916;SDS011;68315;48.608;11.436;2024-01-30T10:41:24;16.17;;;12.20;;
78916;SDS011;68315;48.608;11.436;2024-01-30T10:43:57;16.23;;;12.02;;
78916;SDS011;68315;48.608;11.436;2024-01-30T10:46:29;14.95;;;11.98;;
78916;SDS011;68315;48.608;11.436;2024-01-30T10:48:57;14.98;;;11.77;;
78916;SDS011;68315;48.608;11.436;2024-01-30T10:51:27;16.50;;;12.18;;
78916;SDS011;68315;48.608;11.436;2024-01-30T10:53:53;17.00;;;11.85;;
78916;SDS011;68315;48.608;11.436;2024-01-30T10:56:20;17.50;;;12.98;;
78916;SDS011;68315;48.608;11.436;2024-01-30T10:58:46;15.55;;;12.40;;
78916;SDS011;68315;48.608;11.436;2024-01-30T11:01:13;14.85;;;12.38;;
78916;SDS011;68315;48.608;11.436;2024-01-30T11:03:40;14.73;;;11.90;;
78916;SDS011;68315;48.608;11.436;2024-01-30T11:06:10;12.88;;;11.25;;
78916;SDS011;68315;48.608;11.436;2024-01-30T11:08:37;15.18;;;12.10;;
78916;SDS011;68315;48.608;11.436;2024-01-30T11:11:02;15.63;;;11.88;;
78916;SDS011;68315;48.608;11.436;2024-01-30T11:13:34;13.85;;;10.95;;
78916;SDS011;68315;48.608;11.436;2024-01-30T11:16:03;13.68;;;10.90;;
78916;SDS011;68315;48.608;11.436;2024-01-30T11:18:33;15.02;;;11.07;;
78916;SDS011;68315;48.608;11.436;2024-01-30T11:21:00;14.75;;;11.10;;
78916;SDS011;68315;48.608;11.436;2024-01-30T11:23:27;13.65;;;11.32;;
78916;SDS011;68315;48.608;11.436;2024-01-30T11:25:53;14.52;;;11.27;;
78916;SDS011;68315;48.608;11.436;2024-01-30T11:28:19;13.77;;;10.38;;
78916;SDS011;68315;48.608;11.436;2024-01-30T11:30:46;12.27;;;10.40;;
78916;SDS011;68315;48.608;11.436;2024-01-30T11:33:13;14.20;;;11.32;;
78916;SDS011;68315;48.608;11.436;2024-01-30T11:35:42;14.63;;;11.40;;
78916;SDS011;68315;48.608;11.436;2024-01-30T11:38:10;14.52;;;11.10;;
78916;SDS011;68315;48.608;11.436;2024-01-30T11:40:38;13.43;;;10.88;;
78916;SDS011;68315;48.608;11.436;2024-01-30T11:43:04;14.45;;;10.80;;
78916;SDS011;68315;48.608;11.436;2024-01-30T11:45:31;12.98;;;10.45;;
78916;SDS011;68315;48.608;11.436;2024-01-30T11:47:57;13.63;;;10.55;;
78916;SDS011;68315;48.608;11.436;2024-01-30T11:50:25;12.20;;;10.00;;
78916;SDS011;68315;48.608;11.436;2024-01-30T11:52:50;13.95;;;10.27;;
78916;SDS011;68315;48.608;11.436;2024-01-30T11:55:16;13.88;;;10.32;;
78916;SDS011;68315;48.608;11.436;2024-01-30T11:57:42;15.00;;;10.45;;
78916;SDS011;68315;48.608;11.436;2024-01-30T12:00:18;11.77;;;9.68;;
78916;SDS011;68315;48.608;11.436;2024-01-30T12:02:53;12.52;;;9.82;;
78916;SDS011;68315;48.608;11.436;2024-01-30T12:05:23;12.27;;;9.30;;
78916;SDS011;68315;48.608;11.436;2024-01-30T12:07:52;12.23;;;10.07;;
78916;SDS011;68315;48.608;11.436;2024-01-30T12:10:17;19.15;;;13.60;;
78916;SDS011;68315;48.608;11.436;2024-01-30T12:12:45;16.50;;;12.68;;
78916;SDS011;68315;48.608;11.436;2024-01-30T12:15:12;14.25;;;11.85;;
78916;SDS011;68315;48.608;11.436;2024-01-30T12:17:38;15.35;;;12.30;;
78916;SDS011;68315;48.608;11.436;2024-01-30T12:22:31;16.42;;;12.23;;
78916;SDS011;68315;48.608;11.436;2024-01-30T12:24:57;15.95;;;11.85;;
78916;SDS011;68315;48.608;11.436;2024-01-30T12:27:22;13.88;;;12.10;;
78916;SDS011;68315;48.608;11.436;2024-01-30T12:29:48;18.42;;;14.40;;
78916;SDS011;68315;48.608;11.436;2024-01-30T12:32:15;16.75;;;14.80;;
78916;SDS011;68315;48.608;11.436;2024-01-30T12:34:41;24.38;;;18.15;;
78916;SDS011;68315;48.608;11.436;2024-01-30T12:37:07;18.02;;;14.32;;
78916;SDS011;68315;48.608;11.436;2024-01-30T12:39:34;17.33;;;13.55;;
78916;SDS011;68315;48.608;11.436;2024-01-30T12:42:00;16.58;;;11.82;;
78916;SDS011;68315;48.608;11.436;2024-01-30T12:44:25;14.20;;;11.90;;
78916;SDS011;68315;48.608;11.436;2024-01-30T12:46:50;13.70;;;10.80;;
78916;SDS011;68315;48.608;11.436;2024-01-30T12:49:16;14.88;;;11.52;;
78916;SDS011;68315;48.608;11.436;2024-01-30T12:51:41;17.40;;;12.07;;
78916;SDS011;68315;48.608;11.436;2024-01-30T12:54:06;13.82;;;10.63;;
78916;SDS011;68315;48.608;11.436;2024-01-30T12:56:32;15.73;;;11.27;;
78916;SDS011;68315;48.608;11.436;2024-01-30T12:58:57;12.70;;;10.55;;
78916;SDS011;68315;48.608;11.436;2024-01-30T13:01:22;12.63;;;10.75;;
78916;SDS011;68315;48.608;11.436;2024-01-30T13:03:48;16.90;;;11.73;;
78916;SDS011;68315;48.608;11.436;2024-01-30T13:06:13;14.02;;;10.75;;
78916;SDS011;68315;48.608;11.436;2024-01-30T13:08:38;13.55;;;9.60;;
78916;SDS011;68315;48.608;11.436;2024-01-30T13:11:03;13.00;;;10.43;;
78916;SDS011;68315;48.608;11.436;2024-01-30T13:13:29;14.15;;;10.88;;
78916;SDS011;68315;48.608;11.436;2024-01-30T13:15:54;16.67;;;12.05;;
78916;SDS011;68315;48.608;11.436;2024-01-30T13:18:19;16.10;;;12.20;;
78916;SDS011;68315;48.608;11.436;2024-01-30T13:20:45;14.02;;;11.15;;
78916;SDS011;68315;48.608;11.436;2024-01-30T13:23:10;13.90;;;11.32;;
78916;SDS011;68315;48.608;11.436;2024-01-30T13:25:35;14.85;;;10.82;;
78916;SDS011;68315;48.608;11.436;2024-01-30T13:28:01;14.95;;;11.90;;
78916;SDS011;68315;48.608;11.436;2024-01-30T13:30:26;15.18;;;11.70;;
78916;SDS011;68315;48.608;11.436;2024-01-30T13:32:51;15.90;;;12.05;;
78916;SDS011;68315;48.608;11.436;2024-01-30T13:35:17;15.90;;;11.80;;
78916;SDS011;68315;48.608;11.436;2024-01-30T13:37:42;16.52;;;12.15;;
78916;SDS011;68315;48.608;11.436;2024-01-30T13:40:08;14.73;;;11.35;;
78916;SDS011;68315;48.608;11.436;2024-01-30T13:42:34;13.15;;;11.20;;
78916;SDS011;68315;48.608;11.436;2024-01-30T13:44:59;15.48;;;12.35;;
78916;SDS011;68315;48.608;11.436;2024-01-30T13:47:24;14.43;;;10.93;;
78916;SDS011;68315;48.608;11.436;2024-01-30T13:49:50;15.63;;;11.50;;
78916;SDS011;68315;48.608;11.436;2024-01-30T13:52:15;11.88;;;10.27;;
78916;SDS011;68315;48.608;11.436;2024-01-30T13:54:40;14.60;;;10.85;;
78916;SDS011;68315;48.608;11.436;2024-01-30T13:57:05;14.48;;;11.45;;
78916;SDS011;68315;48.608;11.436;2024-01-30T13:59:32;11.88;;;10.55;;
78916;SDS011;68315;48.608;11.436;2024-01-30T14:01:57;15.77;;;11.43;;
78916;SDS011;68315;48.608;11.436;2024-01-30T14:04:23;14.65;;;10.45;;
78916;SDS011;68315;48.608;11.436;2024-01-30T14:06:48;12.88;;;10.30;;